sensor_id;sensor_type;location;lat;lon;timestamp;pressure;altitude;pressure_sealevel;temperature;humidity
54806;BME280;62866;55.776;37.496;2023-04-22T00:02:03;99373.91;;;9.73;48.61
54806;BME280;62866;55.776;37.496;2023-04-22T00:04:28;99365.06;;;9.72;48.89
54806;BME280;62866;55.776;37.496;2023-04-22T00:06:54;99369.56;;;9.72;49.10
54806;BME280;62866;55.776;37.496;2023-04-22T00:09:20;99376.56;;;9.73;48.70
54806;BME280;62866;55.776;37.496;2023-04-22T00:11:45;99374.31;;;9.70;48.72
54806;BME280;62866;55.776;37.496;2023-04-22T00:14:11;99375.69;;;9.66;49.36
54806;BME280;62866;55.776;37.496;2023-04-22T00:16:37;99371.13;;;9.60;49.18
54806;BME280;62866;55.776;37.496;2023-04-22T00:19:03;99367.78;;;9.51;49.01
54806;BME280;62866;55.776;37.496;2023-04-22T00:21:29;99390.00;;;9.58;48.97
54806;BME280;62866;55.776;37.496;2023-04-22T00:23:55;99378.63;;;9.49;49.02
54806;BME280;62866;55.776;37.496;2023-04-22T00:26:20;99381.47;;;9.48;48.83
54806;BME280;62866;55.776;37.496;2023-04-22T00:28:46;99393.81;;;9.49;49.01
54806;BME280;62866;55.776;37.496;2023-04-22T00:31:11;99388.78;;;9.39;49.17
54806;BME280;62866;55.776;37.496;2023-04-22T00:33:37;99390.22;;;9.35;49.27
54806;BME280;62866;55.776;37.496;2023-04-22T00:36:02;99387.25;;;9.30;49.53
54806;BME280;62866;55.776;37.496;2023-04-22T00:38:28;99390.75;;;9.31;49.46
54806;BME280;62866;55.776;37.496;2023-04-22T00:40:54;99391.53;;;9.25;49.39
54806;BME280;62866;55.776;37.496;2023-04-22T00:43:20;99393.19;;;9.26;49.45
54806;BME280;62866;55.776;37.496;2023-04-22T00:45:46;99388.22;;;9.23;49.57
54806;BME280;62866;55.776;37.496;2023-04-22T00:48:12;99383.28;;;9.20;49.59
54806;BME280;62866;55.776;37.496;2023-04-22T00:50:37;99385.13;;;9.19;49.52
54806;BME280;62866;55.776;37.496;2023-04-22T00:53:03;99384.00;;;9.13;49.92
54806;BME280;62866;55.776;37.496;2023-04-22T00:55:28;99388.34;;;9.14;49.71
54806;BME280;62866;55.776;37.496;2023-04-22T00:57:55;99379.44;;;9.07;50.03
54806;BME280;62866;55.776;37.496;2023-04-22T01:00:22;99377.41;;;9.09;49.88
54806;BME280;62866;55.776;37.496;2023-04-22T01:02:55;99388.53;;;9.13;50.21
54806;BME280;62866;55.776;37.496;2023-04-22T01:05:23;99384.22;;;9.12;49.44
54806;BME280;62866;55.776;37.496;2023-04-22T01:07:49;99374.94;;;9.08;50.01
54806;BME280;62866;55.776;37.496;2023-04-22T01:10:15;99383.41;;;9.11;49.66
54806;BME280;62866;55.776;37.496;2023-04-22T01:12:41;99377.16;;;9.04;50.11
54806;BME280;62866;55.776;37.496;2023-04-22T01:15:07;99376.31;;;9.04;50.18
54806;BME280;62866;55.776;37.496;2023-04-22T01:17:33;99382.28;;;9.06;50.47
54806;BME280;62866;55.776;37.496;2023-04-22T01:19:59;99377.72;;;9.00;50.29
54806;BME280;62866;55.776;37.496;2023-04-22T01:22:31;99378.31;;;8.95;50.63
54806;BME280;62866;55.776;37.496;2023-04-22T01:24:59;99382.59;;;8.96;50.39
54806;BME280;62866;55.776;37.496;2023-04-22T01:27:26;99382.81;;;8.95;50.27
54806;BME280;62866;55.776;37.496;2023-04-22T01:29:52;99385.25;;;8.96;50.57
54806;BME280;62866;55.776;37.496;2023-04-22T01:32:17;99357.63;;;8.83;50.70
54806;BME280;62866;55.776;37.496;2023-04-22T01:34:43;99380.97;;;8.95;50.54
54806;BME280;62866;55.776;37.496;2023-04-22T01:37:09;99382.34;;;8.91;50.87
54806;BME280;62866;55.776;37.496;2023-04-22T01:39:35;99377.19;;;8.90;50.59
54806;BME280;62866;55.776;37.496;2023-04-22T01:42:02;99373.88;;;8.88;51.04
54806;BME280;62866;55.776;37.496;2023-04-22T01:44:27;99379.78;;;8.83;51.45
54806;BME280;62866;55.776;37.496;2023-04-22T01:46:53;99369.31;;;8.82;50.96
54806;BME280;62866;55.776;37.496;2023-04-22T01:49:19;99382.44;;;8.83;50.94
54806;BME280;62866;55.776;37.496;2023-04-22T01:51:45;99371.16;;;8.81;51.14
54806;BME280;62866;55.776;37.496;2023-04-22T01:54:11;99363.53;;;8.78;51.56
54806;BME280;62866;55.776;37.496;2023-04-22T01:56:37;99352.88;;;8.63;51.59
54806;BME280;62866;55.776;37.496;2023-04-22T01:59:08;99380.72;;;8.75;51.36
54806;BME280;62866;55.776;37.496;2023-04-22T02:01:34;99382.94;;;8.72;51.75
54806;BME280;62866;55.776;37.496;2023-04-22T02:03:59;99369.34;;;8.67;51.30
54806;BME280;62866;55.776;37.496;2023-04-22T02:06:25;99376.75;;;8.71;51.75
54806;BME280;62866;55.776;37.496;2023-04-22T02:08:51;99375.31;;;8.69;51.56
54806;BME280;62866;55.776;37.496;2023-04-22T02:11:17;99384.16;;;8.69;51.69
54806;BME280;62866;55.776;37.496;2023-04-22T02:13:43;99384.31;;;8.68;52.07
54806;BME280;62866;55.776;37.496;2023-04-22T02:16:09;99381.84;;;8.66;51.76
54806;BME280;62866;55.776;37.496;2023-04-22T02:18:35;99383.50;;;8.67;51.93
54806;BME280;62866;55.776;37.496;2023-04-22T02:21:01;99363.09;;;8.60;51.79
54806;BME280;62866;55.776;37.496;2023-04-22T02:23:27;99383.09;;;8.70;52.02
54806;BME280;62866;55.776;37.496;2023-04-22T02:25:54;99390.91;;;8.72;51.92
54806;BME280;62866;55.776;37.496;2023-04-22T02:28:20;99377.41;;;8.73;51.64
54806;BME280;62866;55.776;37.496;2023-04-22T02:30:46;99379.06;;;8.74;51.74
54806;BME280;62866;55.776;37.496;2023-04-22T02:33:11;99386.06;;;8.75;51.85
54806;BME280;62866;55.776;37.496;2023-04-22T02:35:37;99362.72;;;8.63;51.70
54806;BME280;62866;55.776;37.496;2023-04-22T02:38:02;99382.00;;;8.80;51.73
54806;BME280;62866;55.776;37.496;2023-04-22T02:40:28;99390.38;;;8.77;51.95
54806;BME280;62866;55.776;37.496;2023-04-22T02:42:53;99392.22;;;8.76;51.73
54806;BME280;62866;55.776;37.496;2023-04-22T02:45:19;99384.03;;;8.78;52.23
54806;BME280;62866;55.776;37.496;2023-04-22T02:47:44;99385.47;;;8.80;52.17
54806;BME280;62866;55.776;37.496;2023-04-22T02:50:10;99392.28;;;8.83;51.63
54806;BME280;62866;55.776;37.496;2023-04-22T02:52:36;99389.38;;;8.78;51.85
54806;BME280;62866;55.776;37.496;2023-04-22T02:55:02;99386.31;;;8.81;51.42
54806;BME280;62866;55.776;37.496;2023-04-22T02:57:30;99390.63;;;8.82;51.54
54806;BME280;62866;55.776;37.496;2023-04-22T02:59:55;99393.94;;;8.84;51.65
54806;BME280;62866;55.776;37.496;2023-04-22T03:02:21;99384.28;;;8.83;51.73
54806;BME280;62866;55.776;37.496;2023-04-22T03:04:47;99385.59;;;8.87;51.32
54806;BME280;62866;55.776;37.496;2023-04-22T03:07:12;99389.50;;;8.91;51.39
54806;BME280;62866;55.776;37.496;2023-04-22T03:09:38;99391.63;;;8.95;51.47
54806;BME280;62866;55.776;37.496;2023-04-22T03:12:04;99371.44;;;8.86;51.27
54806;BME280;62866;55.776;37.496;2023-04-22T03:14:29;99388.75;;;8.97;51.23
54806;BME280;62866;55.776;37.496;2023-04-22T03:16:55;99387.75;;;8.98;51.76
54806;BME280;62866;55.776;37.496;2023-04-22T03:19:21;99392.53;;;9.02;51.51
54806;BME280;62866;55.776;37.496;2023-04-22T03:21:47;99375.88;;;9.00;51.28
54806;BME280;62866;55.776;37.496;2023-04-22T03:24:12;99396.34;;;9.14;51.16
54806;BME280;62866;55.776;37.496;2023-04-22T03:26:38;99403.56;;;9.21;51.25
54806;BME280;62866;55.776;37.496;2023-04-22T03:29:03;99393.13;;;9.19;51.48
54806;BME280;62866;55.776;37.496;2023-04-22T03:31:29;99399.16;;;9.28;51.08
54806;BME280;62866;55.776;37.496;2023-04-22T03:33:54;99401.06;;;9.34;51.32
54806;BME280;62866;55.776;37.496;2023-04-22T03:36:20;99386.53;;;9.36;50.75
54806;BME280;62866;55.776;37.496;2023-04-22T03:38:45;99403.41;;;9.43;50.69
54806;BME280;62866;55.776;37.496;2023-04-22T03:41:11;99396.66;;;9.47;51.04
54806;BME280;62866;55.776;37.496;2023-04-22T03:43:37;99403.09;;;9.53;50.78
54806;BME280;62866;55.776;37.496;2023-04-22T03:46:03;99394.66;;;9.49;51.17
54806;BME280;62866;55.776;37.496;2023-04-22T03:48:28;99407.84;;;9.58;50.68
54806;BME280;62866;55.776;37.496;2023-04-22T03:50:59;99407.81;;;9.51;51.20
54806;BME280;62866;55.776;37.496;2023-04-22T03:53:24;99412.38;;;9.57;51.10
54806;BME280;62866;55.776;37.496;2023-04-22T03:55:50;99410.97;;;9.61;51.33
54806;BME280;62866;55.776;37.496;2023-04-22T03:58:15;99404.19;;;9.59;50.99
54806;BME280;62866;55.776;37.496;2023-04-22T04:00:41;99408.56;;;9.66;50.55
54806;BME280;62866;55.776;37.496;2023-04-22T04:03:06;99411.22;;;9.66;50.56
54806;BME280;62866;55.776;37.496;2023-04-22T04:05:32;99403.16;;;9.60;50.79
54806;BME280;62866;55.776;37.496;2023-04-22T04:07:57;99423.78;;;9.72;50.55
54806;BME280;62866;55.776;37.496;2023-04-22T04:10:23;99411.91;;;9.75;50.44
54806;BME280;62866;55.776;37.496;2023-04-22T04:12:48;99426.97;;;9.82;50.57
54806;BME280;62866;55.776;37.496;2023-04-22T04:15:14;99421.50;;;9.90;50.24
54806;BME280;62866;55.776;37.496;2023-04-22T04:17:43;99415.78;;;9.94;50.18
54806;BME280;62866;55.776;37.496;2023-04-22T04:20:10;99401.75;;;9.85;50.02
54806;BME280;62866;55.776;37.496;2023-04-22T04:22:36;99417.84;;;9.98;50.12
54806;BME280;62866;55.776;37.496;2023-04-22T04:25:02;99415.81;;;10.00;50.33
54806;BME280;62866;55.776;37.496;2023-04-22T04:27:28;99418.31;;;10.02;49.85
54806;BME280;62866;55.776;37.496;2023-04-22T04:29:53;99418.94;;;10.04;50.31
54806;BME280;62866;55.776;37.496;2023-04-22T04:32:22;99418.19;;;10.16;49.89
54806;BME280;62866;55.776;37.496;2023-04-22T04:34:48;99425.75;;;10.34;49.65
54806;BME280;62866;55.776;37.496;2023-04-22T04:37:13;99418.13;;;10.31;49.32
54806;BME280;62866;55.776;37.496;2023-04-22T04:39:41;99420.84;;;10.38;49.50
54806;BME280;62866;55.776;37.496;2023-04-22T04:42:08;99414.47;;;10.39;49.63
54806;BME280;62866;55.776;37.496;2023-04-22T04:44:34;99429.50;;;10.46;49.49
54806;BME280;62866;55.776;37.496;2023-04-22T04:47:00;99420.69;;;10.46;49.46
54806;BME280;62866;55.776;37.496;2023-04-22T04:49:26;99420.28;;;10.49;49.20
54806;BME280;62866;55.776;37.496;2023-04-22T04:51:56;99417.25;;;10.58;49.11
54806;BME280;62866;55.776;37.496;2023-04-22T04:54:21;99418.56;;;10.69;49.08
54806;BME280;62866;55.776;37.496;2023-04-22T04:56:47;99418.59;;;10.82;48.77
54806;BME280;62866;55.776;37.496;2023-04-22T04:59:12;99424.44;;;11.06;48.38
54806;BME280;62866;55.776;37.496;2023-04-22T05:01:38;99416.25;;;11.14;48.01
54806;BME280;62866;55.776;37.496;2023-04-22T05:04:03;99416.50;;;11.32;47.50
54806;BME280;62866;55.776;37.496;2023-04-22T05:06:29;99412.44;;;11.49;47.10
54806;BME280;62866;55.776;37.496;2023-04-22T05:08:57;99423.38;;;11.61;46.87
54806;BME280;62866;55.776;37.496;2023-04-22T05:11:22;99405.84;;;11.65;46.71
54806;BME280;62866;55.776;37.496;2023-04-22T05:13:48;99428.78;;;13.04;44.96
54806;BME280;62866;55.776;37.496;2023-04-22T05:16:13;99413.72;;;16.50;39.24
54806;BME280;62866;55.776;37.496;2023-04-22T05:18:39;99419.91;;;18.66;35.59
54806;BME280;62866;55.776;37.496;2023-04-22T05:21:05;99411.47;;;20.97;32.63
54806;BME280;62866;55.776;37.496;2023-04-22T05:23:30;99429.66;;;22.55;30.06
54806;BME280;62866;55.776;37.496;2023-04-22T05:25:57;99427.63;;;24.63;28.34
54806;BME280;62866;55.776;37.496;2023-04-22T05:28:22;99426.59;;;26.05;26.89
54806;BME280;62866;55.776;37.496;2023-04-22T05:30:48;99414.16;;;27.68;25.20
54806;BME280;62866;55.776;37.496;2023-04-22T05:33:14;99423.59;;;28.20;24.80
54806;BME280;62866;55.776;37.496;2023-04-22T05:35:39;99417.78;;;28.00;24.75
54806;BME280;62866;55.776;37.496;2023-04-22T05:38:05;99425.75;;;27.87;24.55
54806;BME280;62866;55.776;37.496;2023-04-22T05:40:30;99428.03;;;28.30;23.95
54806;BME280;62866;55.776;37.496;2023-04-22T05:42:56;99422.84;;;27.84;24.24
54806;BME280;62866;55.776;37.496;2023-04-22T05:45:21;99415.41;;;28.29;23.17
54806;BME280;62866;55.776;37.496;2023-04-22T05:47:47;99409.09;;;27.84;23.15
54806;BME280;62866;55.776;37.496;2023-04-22T05:50:13;99419.50;;;27.73;23.62
54806;BME280;62866;55.776;37.496;2023-04-22T05:52:39;99412.16;;;27.33;23.62
54806;BME280;62866;55.776;37.496;2023-04-22T05:55:05;99428.44;;;26.28;24.48
54806;BME280;62866;55.776;37.496;2023-04-22T05:57:31;99419.78;;;27.36;23.23
54806;BME280;62866;55.776;37.496;2023-04-22T05:59:58;99415.84;;;27.78;22.59
54806;BME280;62866;55.776;37.496;2023-04-22T06:02:24;99419.94;;;27.67;22.15
54806;BME280;62866;55.776;37.496;2023-04-22T06:04:49;99430.22;;;26.52;22.85
54806;BME280;62866;55.776;37.496;2023-04-22T06:07:15;99425.63;;;24.44;24.33
54806;BME280;62866;55.776;37.496;2023-04-22T06:09:41;99421.19;;;23.41;25.75
54806;BME280;62866;55.776;37.496;2023-04-22T06:12:06;99423.06;;;22.87;26.58
54806;BME280;62866;55.776;37.496;2023-04-22T06:14:32;99422.34;;;22.30;27.29
54806;BME280;62866;55.776;37.496;2023-04-22T06:16:57;99438.59;;;22.91;26.65
54806;BME280;62866;55.776;37.496;2023-04-22T06:19:23;99428.88;;;23.34;26.14
54806;BME280;62866;55.776;37.496;2023-04-22T06:21:48;99437.38;;;23.23;26.24
54806;BME280;62866;55.776;37.496;2023-04-22T06:24:14;99410.88;;;22.59;26.58
54806;BME280;62866;55.776;37.496;2023-04-22T06:26:39;99434.25;;;21.69;27.61
54806;BME280;62866;55.776;37.496;2023-04-22T06:29:05;99420.19;;;21.09;27.98
54806;BME280;62866;55.776;37.496;2023-04-22T06:31:31;99424.03;;;20.61;28.70
54806;BME280;62866;55.776;37.496;2023-04-22T06:33:56;99430.13;;;20.04;29.88
54806;BME280;62866;55.776;37.496;2023-04-22T06:36:23;99426.69;;;20.98;28.77
54806;BME280;62866;55.776;37.496;2023-04-22T06:38:51;99422.91;;;22.17;27.34
54806;BME280;62866;55.776;37.496;2023-04-22T06:41:17;99416.34;;;22.13;27.26
54806;BME280;62866;55.776;37.496;2023-04-22T06:43:42;99414.69;;;21.72;27.66
54806;BME280;62866;55.776;37.496;2023-04-22T06:46:08;99428.47;;;21.30;27.90
54806;BME280;62866;55.776;37.496;2023-04-22T06:48:34;99423.91;;;20.09;29.31
54806;BME280;62866;55.776;37.496;2023-04-22T06:51:00;99417.84;;;19.43;30.37
54806;BME280;62866;55.776;37.496;2023-04-22T06:53:26;99394.50;;;18.93;30.93
54806;BME280;62866;55.776;37.496;2023-04-22T06:55:52;99418.16;;;19.25;30.68
54806;BME280;62866;55.776;37.496;2023-04-22T06:58:19;99410.63;;;20.07;30.04
54806;BME280;62866;55.776;37.496;2023-04-22T07:00:45;99412.97;;;20.73;29.21
54806;BME280;62866;55.776;37.496;2023-04-22T07:03:11;99409.81;;;21.01;29.02
54806;BME280;62866;55.776;37.496;2023-04-22T07:05:36;99399.19;;;19.47;30.50
54806;BME280;62866;55.776;37.496;2023-04-22T07:08:02;99408.53;;;18.69;31.41
54806;BME280;62866;55.776;37.496;2023-04-22T07:10:27;99413.56;;;18.60;31.40
54806;BME280;62866;55.776;37.496;2023-04-22T07:12:53;99425.47;;;17.92;32.45
54806;BME280;62866;55.776;37.496;2023-04-22T07:15:19;99418.50;;;18.63;32.01
54806;BME280;62866;55.776;37.496;2023-04-22T07:17:45;99421.09;;;19.18;30.79
54806;BME280;62866;55.776;37.496;2023-04-22T07:20:10;99409.53;;;19.28;31.14
54806;BME280;62866;55.776;37.496;2023-04-22T07:22:36;99411.16;;;19.51;30.71
54806;BME280;62866;55.776;37.496;2023-04-22T07:25:02;99404.66;;;20.11;30.37
54806;BME280;62866;55.776;37.496;2023-04-22T07:27:27;99411.69;;;19.48;30.25
54806;BME280;62866;55.776;37.496;2023-04-22T07:29:53;99404.16;;;20.14;29.93
54806;BME280;62866;55.776;37.496;2023-04-22T07:32:18;99407.91;;;20.97;29.00
54806;BME280;62866;55.776;37.496;2023-04-22T07:34:44;99422.88;;;22.43;27.51
54806;BME280;62866;55.776;37.496;2023-04-22T07:37:10;99396.38;;;22.84;26.48
54806;BME280;62866;55.776;37.496;2023-04-22T07:39:35;99415.59;;;23.18;26.14
54806;BME280;62866;55.776;37.496;2023-04-22T07:42:01;99408.13;;;22.64;26.78
54806;BME280;62866;55.776;37.496;2023-04-22T07:44:27;99425.31;;;21.93;27.39
54806;BME280;62866;55.776;37.496;2023-04-22T07:46:53;99412.53;;;21.89;27.67
54806;BME280;62866;55.776;37.496;2023-04-22T07:49:19;99398.09;;;22.19;27.19
54806;BME280;62866;55.776;37.496;2023-04-22T07:51:45;99404.84;;;22.52;26.61
54806;BME280;62866;55.776;37.496;2023-04-22T07:54:11;99411.41;;;21.85;27.12
54806;BME280;62866;55.776;37.496;2023-04-22T07:56:36;99429.38;;;21.96;26.93
54806;BME280;62866;55.776;37.496;2023-04-22T07:59:02;99412.59;;;23.14;25.53
54806;BME280;62866;55.776;37.496;2023-04-22T08:01:28;99413.91;;;23.22;25.57
54806;BME280;62866;55.776;37.496;2023-04-22T08:03:53;99408.44;;;23.27;25.55
54806;BME280;62866;55.776;37.496;2023-04-22T08:06:19;99402.34;;;23.50;25.28
54806;BME280;62866;55.776;37.496;2023-04-22T08:08:45;99405.13;;;23.79;24.77
54806;BME280;62866;55.776;37.496;2023-04-22T08:11:10;99412.84;;;24.06;24.15
54806;BME280;62866;55.776;37.496;2023-04-22T08:13:36;99395.81;;;25.01;23.61
54806;BME280;62866;55.776;37.496;2023-04-22T08:16:01;99405.00;;;25.28;23.77
54806;BME280;62866;55.776;37.496;2023-04-22T08:18:28;99412.72;;;25.26;23.44
54806;BME280;62866;55.776;37.496;2023-04-22T08:20:54;99408.41;;;24.73;24.37
54806;BME280;62866;55.776;37.496;2023-04-22T08:23:20;99419.94;;;24.07;24.28
54806;BME280;62866;55.776;37.496;2023-04-22T08:25:46;99406.97;;;22.85;25.60
54806;BME280;62866;55.776;37.496;2023-04-22T08:28:12;99410.09;;;22.03;26.60
54806;BME280;62866;55.776;37.496;2023-04-22T08:30:38;99413.97;;;21.14;27.45
54806;BME280;62866;55.776;37.496;2023-04-22T08:33:03;99424.25;;;20.18;28.27
54806;BME280;62866;55.776;37.496;2023-04-22T08:35:29;99418.31;;;19.57;29.21
54806;BME280;62866;55.776;37.496;2023-04-22T08:37:54;99414.84;;;19.18;29.61
54806;BME280;62866;55.776;37.496;2023-04-22T08:40:20;99419.78;;;18.99;29.87
54806;BME280;62866;55.776;37.496;2023-04-22T08:42:46;99423.41;;;19.31;29.28
54806;BME280;62866;55.776;37.496;2023-04-22T08:45:12;99411.75;;;19.09;29.29
54806;BME280;62866;55.776;37.496;2023-04-22T08:47:39;99416.56;;;19.02;29.04
54806;BME280;62866;55.776;37.496;2023-04-22T08:50:05;99400.38;;;18.64;29.29
54806;BME280;62866;55.776;37.496;2023-04-22T08:52:32;99415.34;;;18.16;29.94
54806;BME280;62866;55.776;37.496;2023-04-22T08:54:58;99403.19;;;18.02;29.80
54806;BME280;62866;55.776;37.496;2023-04-22T08:57:24;99406.72;;;18.02;30.03
54806;BME280;62866;55.776;37.496;2023-04-22T08:59:50;99412.94;;;17.69;30.37
54806;BME280;62866;55.776;37.496;2023-04-22T09:02:19;99410.00;;;17.71;30.51
54806;BME280;62866;55.776;37.496;2023-04-22T09:05:00;99402.00;;;20.16;28.55
54806;BME280;62866;55.776;37.496;2023-04-22T09:07:27;99409.97;;;21.32;27.19
54806;BME280;62866;55.776;37.496;2023-04-22T09:09:55;99409.81;;;21.01;27.64
54806;BME280;62866;55.776;37.496;2023-04-22T09:12:21;99408.25;;;20.16;28.12
54806;BME280;62866;55.776;37.496;2023-04-22T09:14:47;99402.13;;;19.45;29.06
54806;BME280;62866;55.776;37.496;2023-04-22T09:17:17;99409.56;;;19.50;29.01
54806;BME280;62866;55.776;37.496;2023-04-22T09:19:56;99407.00;;;19.16;29.67
54806;BME280;62866;55.776;37.496;2023-04-22T09:22:22;99406.53;;;19.03;30.00
54806;BME280;62866;55.776;37.496;2023-04-22T09:24:48;99400.25;;;18.97;30.26
54806;BME280;62866;55.776;37.496;2023-04-22T09:27:18;99389.34;;;18.92;30.32
54806;BME280;62866;55.776;37.496;2023-04-22T09:29:50;99388.66;;;18.80;30.52
54806;BME280;62866;55.776;37.496;2023-04-22T09:32:16;99402.56;;;18.67;30.60
54806;BME280;62866;55.776;37.496;2023-04-22T09:34:49;99372.81;;;18.33;31.11
54806;BME280;62866;55.776;37.496;2023-04-22T09:37:18;99394.22;;;18.35;31.07
54806;BME280;62866;55.776;37.496;2023-04-22T09:39:47;99404.31;;;18.39;31.18
54806;BME280;62866;55.776;37.496;2023-04-22T09:42:13;99401.06;;;18.20;30.94
54806;BME280;62866;55.776;37.496;2023-04-22T09:44:38;99393.84;;;18.09;31.10
54806;BME280;62866;55.776;37.496;2023-04-22T09:47:04;99416.00;;;17.90;31.44
54806;BME280;62866;55.776;37.496;2023-04-22T09:49:35;99414.34;;;17.72;31.48
54806;BME280;62866;55.776;37.496;2023-04-22T09:52:02;99405.09;;;17.56;31.51
54806;BME280;62866;55.776;37.496;2023-04-22T09:54:27;99403.53;;;17.72;31.41
54806;BME280;62866;55.776;37.496;2023-04-22T09:56:53;99415.78;;;17.63;31.40
54806;BME280;62866;55.776;37.496;2023-04-22T09:59:22;99412.78;;;17.48;31.47
54806;BME280;62866;55.776;37.496;2023-04-22T10:01:50;99410.47;;;17.39;31.59
54806;BME280;62866;55.776;37.496;2023-04-22T10:04:16;99412.16;;;17.57;31.41
54806;BME280;62866;55.776;37.496;2023-04-22T10:06:46;99402.47;;;17.73;31.11
54806;BME280;62866;55.776;37.496;2023-04-22T10:09:12;99405.06;;;17.85;30.81
54806;BME280;62866;55.776;37.496;2023-04-22T10:11:39;99391.88;;;18.05;30.62
54806;BME280;62866;55.776;37.496;2023-04-22T10:14:05;99391.88;;;18.05;30.71
54806;BME280;62866;55.776;37.496;2023-04-22T10:16:34;99388.94;;;18.06;30.07
54806;BME280;62866;55.776;37.496;2023-04-22T10:19:02;99388.78;;;18.13;30.13
54806;BME280;62866;55.776;37.496;2023-04-22T10:21:29;99370.06;;;18.50;29.89
54806;BME280;62866;55.776;37.496;2023-04-22T10:23:58;99371.44;;;18.69;29.71
54806;BME280;62866;55.776;37.496;2023-04-22T10:26:56;99371.22;;;18.15;30.14
54806;BME280;62866;55.776;37.496;2023-04-22T10:29:23;99379.19;;;17.89;30.62
54806;BME280;62866;55.776;37.496;2023-04-22T10:34:42;99385.81;;;17.64;30.80
54806;BME280;62866;55.776;37.496;2023-04-22T10:37:11;99386.25;;;17.73;30.31
54806;BME280;62866;55.776;37.496;2023-04-22T10:39:40;99376.72;;;17.87;29.80
54806;BME280;62866;55.776;37.496;2023-04-22T10:42:08;99364.94;;;18.48;28.91
54806;BME280;62866;55.776;37.496;2023-04-22T10:44:53;99382.06;;;19.19;29.17
54806;BME280;62866;55.776;37.496;2023-04-22T10:49:51;99383.00;;;18.81;29.24
54806;BME280;62866;55.776;37.496;2023-04-22T10:52:27;99388.84;;;18.18;30.00
54806;BME280;62866;55.776;37.496;2023-04-22T10:57:19;99398.44;;;17.19;30.71
54806;BME280;62866;55.776;37.496;2023-04-22T10:59:52;99386.94;;;16.60;30.98
54806;BME280;62866;55.776;37.496;2023-04-22T11:02:19;99389.78;;;16.53;31.22
54806;BME280;62866;55.776;37.496;2023-04-22T11:04:46;99381.66;;;16.88;30.83
54806;BME280;62866;55.776;37.496;2023-04-22T11:07:16;99379.16;;;17.27;29.94
54806;BME280;62866;55.776;37.496;2023-04-22T11:09:59;99377.44;;;17.66;29.44
54806;BME280;62866;55.776;37.496;2023-04-22T11:15:14;99368.81;;;18.36;28.57
54806;BME280;62866;55.776;37.496;2023-04-22T11:17:44;99366.63;;;18.54;28.56
54806;BME280;62866;55.776;37.496;2023-04-22T11:20:11;99361.94;;;18.67;28.33
54806;BME280;62866;55.776;37.496;2023-04-22T11:22:42;99354.25;;;18.58;28.42
54806;BME280;62866;55.776;37.496;2023-04-22T11:25:08;99362.00;;;18.33;28.62
54806;BME280;62866;55.776;37.496;2023-04-22T11:27:38;99368.63;;;17.87;29.44
54806;BME280;62866;55.776;37.496;2023-04-22T11:30:13;99370.31;;;17.76;29.70
54806;BME280;62866;55.776;37.496;2023-04-22T11:32:41;99369.75;;;17.74;29.85
54806;BME280;62866;55.776;37.496;2023-04-22T11:35:11;99376.88;;;17.64;29.92
54806;BME280;62866;55.776;37.496;2023-04-22T11:37:48;99373.94;;;17.37;30.11
54806;BME280;62866;55.776;37.496;2023-04-22T11:40:22;99351.50;;;17.08;30.87
54806;BME280;62866;55.776;37.496;2023-04-22T11:42:49;99362.13;;;16.98;30.83
54806;BME280;62866;55.776;37.496;2023-04-22T11:45:15;99367.03;;;17.29;30.39
54806;BME280;62866;55.776;37.496;2023-04-22T11:47:42;99372.72;;;17.16;30.75
54806;BME280;62866;55.776;37.496;2023-04-22T11:50:11;99378.16;;;17.33;30.00
54806;BME280;62866;55.776;37.496;2023-04-22T11:58:13;99351.41;;;17.93;29.75
54806;BME280;62866;55.776;37.496;2023-04-22T12:00:46;99358.53;;;18.16;29.51
54806;BME280;62866;55.776;37.496;2023-04-22T12:03:13;99326.13;;;18.21;28.88
54806;BME280;62866;55.776;37.496;2023-04-22T12:05:59;99351.56;;;17.87;29.74
54806;BME280;62866;55.776;37.496;2023-04-22T12:08:30;99351.09;;;17.73;29.81
54806;BME280;62866;55.776;37.496;2023-04-22T12:11:01;99352.88;;;17.84;29.90
54806;BME280;62866;55.776;37.496;2023-04-22T12:13:28;99358.31;;;17.39;30.23
54806;BME280;62866;55.776;37.496;2023-04-22T12:16:19;99360.94;;;17.05;30.55
54806;BME280;62866;55.776;37.496;2023-04-22T12:18:51;99364.47;;;16.94;30.60
54806;BME280;62866;55.776;37.496;2023-04-22T12:21:22;99356.88;;;17.20;30.23
54806;BME280;62866;55.776;37.496;2023-04-22T12:23:53;99349.78;;;17.30;30.14
54806;BME280;62866;55.776;37.496;2023-04-22T12:26:21;99345.50;;;17.63;29.70
54806;BME280;62866;55.776;37.496;2023-04-22T12:28:48;99342.56;;;17.98;29.31
54806;BME280;62866;55.776;37.496;2023-04-22T12:31:15;99336.31;;;17.97;29.20
54806;BME280;62866;55.776;37.496;2023-04-22T12:33:41;99335.56;;;18.02;29.42
54806;BME280;62866;55.776;37.496;2023-04-22T12:36:07;99324.91;;;18.34;29.05
54806;BME280;62866;55.776;37.496;2023-04-22T12:38:33;99317.53;;;18.46;28.84
54806;BME280;62866;55.776;37.496;2023-04-22T12:41:00;99311.09;;;18.52;28.92
54806;BME280;62866;55.776;37.496;2023-04-22T12:43:26;99324.97;;;18.55;28.72
54806;BME280;62866;55.776;37.496;2023-04-22T12:45:52;99330.03;;;18.30;28.95
54806;BME280;62866;55.776;37.496;2023-04-22T12:48:17;99326.06;;;17.99;29.43
54806;BME280;62866;55.776;37.496;2023-04-22T12:50:43;99326.34;;;17.81;29.52
54806;BME280;62866;55.776;37.496;2023-04-22T12:53:09;99321.84;;;17.58;29.74
54806;BME280;62866;55.776;37.496;2023-04-22T12:55:35;99341.47;;;17.49;29.79
54806;BME280;62866;55.776;37.496;2023-04-22T12:58:01;99334.47;;;17.36;29.84
54806;BME280;62866;55.776;37.496;2023-04-22T13:00:27;99336.28;;;17.47;30.00
54806;BME280;62866;55.776;37.496;2023-04-22T13:02:53;99333.25;;;17.43;29.70
54806;BME280;62866;55.776;37.496;2023-04-22T13:05:18;99333.91;;;17.51;29.58
54806;BME280;62866;55.776;37.496;2023-04-22T13:07:45;99332.63;;;17.70;29.00